sensor_id;sensor_type;location;lat;lon;timestamp;P1;durP1;ratioP1;P2;durP2;ratioP2
22963;SDS011;11648;49.306;6.934;2023-07-29T00:01:22;2.47;;;0.93;;
22963;SDS011;11648;49.306;6.934;2023-07-29T00:03:49;2.53;;;0.90;;
22963;SDS011;11648;49.306;6.934;2023-07-29T00:06:16;2.50;;;1.00;;
22963;SDS011;11648;49.306;6.934;2023-07-29T00:08:43;1.90;;;0.90;;
22963;SDS011;11648;49.306;6.934;2023-07-29T00:11:09;2.80;;;0.93;;
22963;SDS011;11648;49.306;6.934;2023-07-29T00:13:36;1.50;;;0.90;;
22963;SDS011;11648;49.306;6.934;2023-07-29T00:16:03;4.67;;;1.20;;
22963;SDS011;11648;49.306;6.934;2023-07-29T00:18:30;3.97;;;1.40;;
22963;SDS011;11648;49.306;6.934;2023-07-29T00:20:57;1.87;;;1.10;;
22963;SDS011;11648;49.306;6.934;2023-07-29T00:23:24;3.13;;;1.00;;
22963;SDS011;11648;49.306;6.934;2023-07-29T00:25:50;2.33;;;1.10;;
22963;SDS011;11648;49.306;6.934;2023-07-29T00:28:17;1.67;;;1.10;;
22963;SDS011;11648;49.306;6.934;2023-07-29T00:30:48;2.57;;;1.00;;
22963;SDS011;11648;49.306;6.934;2023-07-29T00:33:15;1.70;;;1.10;;
22963;SDS011;11648;49.306;6.934;2023-07-29T00:35:42;1.67;;;0.90;;
22963;SDS011;11648;49.306;6.934;2023-07-29T00:38:08;2.00;;;1.00;;
22963;SDS011;11648;49.306;6.934;2023-07-29T00:40:35;4.00;;;1.00;;
22963;SDS011;11648;49.306;6.934;2023-07-29T00:43:03;3.60;;;1.20;;
22963;SDS011;11648;49.306;6.934;2023-07-29T00:45:30;2.50;;;1.00;;
22963;SDS011;11648;49.306;6.934;2023-07-29T00:48:01;1.93;;;0.90;;
22963;SDS011;11648;49.306;6.934;2023-07-29T00:50:30;1.80;;;1.00;;
22963;SDS011;11648;49.306;6.934;2023-07-29T00:52:59;3.50;;;1.13;;
22963;SDS011;11648;49.306;6.934;2023-07-29T00:55:27;3.23;;;1.17;;
22963;SDS011;11648;49.306;6.934;2023-07-29T00:57:54;2.37;;;1.20;;
22963;SDS011;11648;49.306;6.934;2023-07-29T01:00:21;1.23;;;0.83;;
22963;SDS011;11648;49.306;6.934;2023-07-29T01:02:48;2.77;;;1.10;;
22963;SDS011;11648;49.306;6.934;2023-07-29T01:05:16;2.87;;;1.30;;
22963;SDS011;11648;49.306;6.934;2023-07-29T01:08:03;1.97;;;1.00;;
22963;SDS011;11648;49.306;6.934;2023-07-29T01:13:06;2.13;;;1.33;;
22963;SDS011;11648;49.306;6.934;2023-07-29T01:15:39;2.80;;;1.50;;
22963;SDS011;11648;49.306;6.934;2023-07-29T01:18:15;2.50;;;1.60;;
22963;SDS011;11648;49.306;6.934;2023-07-29T01:20:48;4.27;;;1.67;;
22963;SDS011;11648;49.306;6.934;2023-07-29T01:23:29;4.63;;;1.80;;
22963;SDS011;11648;49.306;6.934;2023-07-29T01:25:58;2.90;;;1.60;;
22963;SDS011;11648;49.306;6.934;2023-07-29T01:28:25;3.07;;;1.57;;
22963;SDS011;11648;49.306;6.934;2023-07-29T01:31:03;2.60;;;1.50;;
22963;SDS011;11648;49.306;6.934;2023-07-29T01:34:17;3.93;;;1.30;;
22963;SDS011;11648;49.306;6.934;2023-07-29T01:36:50;2.10;;;1.20;;
22963;SDS011;11648;49.306;6.934;2023-07-29T01:39:18;3.03;;;1.10;;
22963;SDS011;11648;49.306;6.934;2023-07-29T01:41:48;4.47;;;1.13;;
22963;SDS011;11648;49.306;6.934;2023-07-29T01:44:17;2.77;;;1.20;;
22963;SDS011;11648;49.306;6.934;2023-07-29T01:46:46;2.03;;;1.27;;
22963;SDS011;11648;49.306;6.934;2023-07-29T01:49:13;2.47;;;1.20;;
22963;SDS011;11648;49.306;6.934;2023-07-29T01:51:40;2.00;;;1.20;;
22963;SDS011;11648;49.306;6.934;2023-07-29T01:54:07;3.70;;;1.60;;
22963;SDS011;11648;49.306;6.934;2023-07-29T01:56:35;4.10;;;1.17;;
22963;SDS011;11648;49.306;6.934;2023-07-29T01:59:02;4.17;;;1.23;;
22963;SDS011;11648;49.306;6.934;2023-07-29T02:01:29;1.97;;;1.20;;
22963;SDS011;11648;49.306;6.934;2023-07-29T02:03:57;2.70;;;1.37;;
22963;SDS011;11648;49.306;6.934;2023-07-29T02:06:24;2.47;;;1.40;;
22963;SDS011;11648;49.306;6.934;2023-07-29T02:08:52;3.70;;;1.83;;
22963;SDS011;11648;49.306;6.934;2023-07-29T02:11:21;2.83;;;2.00;;
22963;SDS011;11648;49.306;6.934;2023-07-29T02:13:54;3.07;;;2.00;;
22963;SDS011;11648;49.306;6.934;2023-07-29T02:16:21;2.80;;;1.80;;
22963;SDS011;11648;49.306;6.934;2023-07-29T02:18:49;3.47;;;1.87;;
22963;SDS011;11648;49.306;6.934;2023-07-29T02:21:18;3.87;;;1.70;;
22963;SDS011;11648;49.306;6.934;2023-07-29T02:23:45;4.17;;;1.90;;
22963;SDS011;11648;49.306;6.934;2023-07-29T02:26:12;3.70;;;1.70;;
22963;SDS011;11648;49.306;6.934;2023-07-29T02:28:38;3.23;;;1.87;;
22963;SDS011;11648;49.306;6.934;2023-07-29T02:31:19;5.77;;;1.80;;
22963;SDS011;11648;49.306;6.934;2023-07-29T02:33:48;3.40;;;1.80;;
22963;SDS011;11648;49.306;6.934;2023-07-29T02:36:16;3.23;;;1.57;;
22963;SDS011;11648;49.306;6.934;2023-07-29T02:38:44;4.60;;;1.50;;
22963;SDS011;11648;49.306;6.934;2023-07-29T02:41:11;2.40;;;1.53;;
22963;SDS011;11648;49.306;6.934;2023-07-29T02:43:39;3.07;;;1.83;;
22963;SDS011;11648;49.306;6.934;2023-07-29T02:46:07;4.00;;;2.20;;
22963;SDS011;11648;49.306;6.934;2023-07-29T02:48:34;4.23;;;2.20;;
22963;SDS011;11648;49.306;6.934;2023-07-29T02:51:01;3.80;;;2.30;;
22963;SDS011;11648;49.306;6.934;2023-07-29T02:53:28;5.90;;;2.57;;
22963;SDS011;11648;49.306;6.934;2023-07-29T02:55:55;3.43;;;2.30;;
22963;SDS011;11648;49.306;6.934;2023-07-29T02:58:21;3.50;;;2.40;;
22963;SDS011;11648;49.306;6.934;2023-07-29T03:00:48;3.07;;;1.80;;
22963;SDS011;11648;49.306;6.934;2023-07-29T03:03:17;3.00;;;1.90;;
22963;SDS011;11648;49.306;6.934;2023-07-29T03:05:45;3.60;;;1.80;;
22963;SDS011;11648;49.306;6.934;2023-07-29T03:08:12;3.83;;;1.93;;
22963;SDS011;11648;49.306;6.934;2023-07-29T03:10:39;6.17;;;1.40;;
22963;SDS011;11648;49.306;6.934;2023-07-29T03:13:06;5.37;;;1.80;;
22963;SDS011;11648;49.306;6.934;2023-07-29T03:15:32;3.10;;;1.40;;
22963;SDS011;11648;49.306;6.934;2023-07-29T03:18:01;3.23;;;1.83;;
22963;SDS011;11648;49.306;6.934;2023-07-29T03:20:28;2.90;;;1.60;;
22963;SDS011;11648;49.306;6.934;2023-07-29T03:22:54;2.60;;;1.30;;
22963;SDS011;11648;49.306;6.934;2023-07-29T03:25:21;2.27;;;1.40;;
22963;SDS011;11648;49.306;6.934;2023-07-29T03:27:48;4.30;;;1.50;;
22963;SDS011;11648;49.306;6.934;2023-07-29T03:30:19;3.73;;;1.33;;
22963;SDS011;11648;49.306;6.934;2023-07-29T03:32:46;2.60;;;1.30;;
22963;SDS011;11648;49.306;6.934;2023-07-29T03:35:13;1.77;;;1.20;;
22963;SDS011;11648;49.306;6.934;2023-07-29T03:37:40;2.30;;;1.03;;
22963;SDS011;11648;49.306;6.934;2023-07-29T03:40:08;2.73;;;1.20;;
22963;SDS011;11648;49.306;6.934;2023-07-29T03:42:38;2.53;;;1.30;;
22963;SDS011;11648;49.306;6.934;2023-07-29T03:45:04;3.17;;;1.13;;
22963;SDS011;11648;49.306;6.934;2023-07-29T03:47:31;3.70;;;1.10;;
22963;SDS011;11648;49.306;6.934;2023-07-29T03:49:59;2.47;;;1.17;;
22963;SDS011;11648;49.306;6.934;2023-07-29T03:52:26;2.50;;;1.30;;
22963;SDS011;11648;49.306;6.934;2023-07-29T03:54:52;4.20;;;1.20;;
22963;SDS011;11648;49.306;6.934;2023-07-29T03:57:19;2.63;;;1.10;;
22963;SDS011;11648;49.306;6.934;2023-07-29T03:59:46;3.50;;;1.50;;
22963;SDS011;11648;49.306;6.934;2023-07-29T04:02:12;2.80;;;1.40;;
22963;SDS011;11648;49.306;6.934;2023-07-29T04:04:41;4.17;;;1.77;;
22963;SDS011;11648;49.306;6.934;2023-07-29T04:07:09;3.10;;;1.70;;
22963;SDS011;11648;49.306;6.934;2023-07-29T04:09:36;3.30;;;1.50;;
22963;SDS011;11648;49.306;6.934;2023-07-29T04:12:02;3.00;;;1.70;;
22963;SDS011;11648;49.306;6.934;2023-07-29T04:14:29;4.10;;;1.90;;
22963;SDS011;11648;49.306;6.934;2023-07-29T04:16:56;3.50;;;1.80;;
22963;SDS011;11648;49.306;6.934;2023-07-29T04:19:23;4.40;;;1.90;;
22963;SDS011;11648;49.306;6.934;2023-07-29T04:21:50;3.03;;;1.73;;
22963;SDS011;11648;49.306;6.934;2023-07-29T04:24:17;2.50;;;1.60;;
22963;SDS011;11648;49.306;6.934;2023-07-29T04:26:46;5.60;;;1.80;;
22963;SDS011;11648;49.306;6.934;2023-07-29T04:29:13;2.53;;;1.50;;
22963;SDS011;11648;49.306;6.934;2023-07-29T04:31:39;7.37;;;1.90;;
22963;SDS011;11648;49.306;6.934;2023-07-29T04:34:06;4.67;;;1.90;;
22963;SDS011;11648;49.306;6.934;2023-07-29T04:36:33;4.00;;;1.60;;
22963;SDS011;11648;49.306;6.934;2023-07-29T04:39:00;2.93;;;1.57;;
22963;SDS011;11648;49.306;6.934;2023-07-29T04:41:27;3.00;;;1.60;;
22963;SDS011;11648;49.306;6.934;2023-07-29T04:43:54;5.57;;;2.23;;
22963;SDS011;11648;49.306;6.934;2023-07-29T04:46:20;5.93;;;2.17;;
22963;SDS011;11648;49.306;6.934;2023-07-29T04:48:47;7.13;;;1.90;;
22963;SDS011;11648;49.306;6.934;2023-07-29T04:51:14;5.17;;;1.80;;
22963;SDS011;11648;49.306;6.934;2023-07-29T04:53:41;4.80;;;1.87;;
22963;SDS011;11648;49.306;6.934;2023-07-29T04:56:07;4.27;;;1.90;;
22963;SDS011;11648;49.306;6.934;2023-07-29T04:58:34;3.30;;;1.90;;
22963;SDS011;11648;49.306;6.934;2023-07-29T05:01:02;4.70;;;2.10;;
22963;SDS011;11648;49.306;6.934;2023-07-29T05:03:29;3.37;;;1.97;;
22963;SDS011;11648;49.306;6.934;2023-07-29T05:05:57;3.93;;;2.00;;
22963;SDS011;11648;49.306;6.934;2023-07-29T05:08:27;5.03;;;2.23;;
22963;SDS011;11648;49.306;6.934;2023-07-29T05:10:53;4.33;;;2.10;;
22963;SDS011;11648;49.306;6.934;2023-07-29T05:13:21;3.70;;;2.40;;
22963;SDS011;11648;49.306;6.934;2023-07-29T05:15:48;4.30;;;2.43;;
22963;SDS011;11648;49.306;6.934;2023-07-29T05:18:16;6.13;;;3.10;;
22963;SDS011;11648;49.306;6.934;2023-07-29T05:20:43;6.00;;;2.70;;
22963;SDS011;11648;49.306;6.934;2023-07-29T05:23:10;3.00;;;2.17;;
22963;SDS011;11648;49.306;6.934;2023-07-29T05:25:37;3.70;;;2.37;;
22963;SDS011;11648;49.306;6.934;2023-07-29T05:28:04;3.57;;;2.40;;
22963;SDS011;11648;49.306;6.934;2023-07-29T05:30:31;3.47;;;2.40;;
22963;SDS011;11648;49.306;6.934;2023-07-29T05:33:00;5.23;;;2.47;;
22963;SDS011;11648;49.306;6.934;2023-07-29T05:35:27;4.30;;;2.30;;
22963;SDS011;11648;49.306;6.934;2023-07-29T05:37:54;3.60;;;1.93;;
22963;SDS011;11648;49.306;6.934;2023-07-29T05:40:21;3.77;;;1.70;;
22963;SDS011;11648;49.306;6.934;2023-07-29T05:42:47;3.43;;;1.67;;
22963;SDS011;11648;49.306;6.934;2023-07-29T05:45:14;2.60;;;1.43;;
22963;SDS011;11648;49.306;6.934;2023-07-29T05:47:41;3.33;;;1.63;;
22963;SDS011;11648;49.306;6.934;2023-07-29T05:50:08;2.30;;;1.50;;
22963;SDS011;11648;49.306;6.934;2023-07-29T05:52:36;2.83;;;1.70;;
22963;SDS011;11648;49.306;6.934;2023-07-29T05:55:03;4.53;;;1.47;;
22963;SDS011;11648;49.306;6.934;2023-07-29T05:57:30;3.30;;;1.90;;
22963;SDS011;11648;49.306;6.934;2023-07-29T05:59:57;3.10;;;2.00;;
22963;SDS011;11648;49.306;6.934;2023-07-29T06:02:24;5.70;;;2.40;;
22963;SDS011;11648;49.306;6.934;2023-07-29T06:04:51;5.50;;;2.30;;
22963;SDS011;11648;49.306;6.934;2023-07-29T06:07:18;3.43;;;2.03;;
22963;SDS011;11648;49.306;6.934;2023-07-29T06:09:45;2.90;;;1.50;;
22963;SDS011;11648;49.306;6.934;2023-07-29T06:12:12;5.00;;;1.43;;
22963;SDS011;11648;49.306;6.934;2023-07-29T06:14:39;3.50;;;1.40;;
22963;SDS011;11648;49.306;6.934;2023-07-29T06:17:08;2.37;;;1.30;;
22963;SDS011;11648;49.306;6.934;2023-07-29T06:19:38;2.67;;;1.23;;
22963;SDS011;11648;49.306;6.934;2023-07-29T06:22:04;1.87;;;1.23;;
22963;SDS011;11648;49.306;6.934;2023-07-29T06:24:32;2.03;;;1.10;;
22963;SDS011;11648;49.306;6.934;2023-07-29T06:26:59;2.60;;;1.30;;
22963;SDS011;11648;49.306;6.934;2023-07-29T06:29:26;2.00;;;0.97;;
22963;SDS011;11648;49.306;6.934;2023-07-29T06:31:52;2.67;;;1.10;;
22963;SDS011;11648;49.306;6.934;2023-07-29T06:34:19;1.90;;;1.10;;
22963;SDS011;11648;49.306;6.934;2023-07-29T06:36:46;2.53;;;1.00;;
22963;SDS011;11648;49.306;6.934;2023-07-29T06:39:13;3.90;;;1.20;;
22963;SDS011;11648;49.306;6.934;2023-07-29T06:41:39;3.17;;;1.13;;
22963;SDS011;11648;49.306;6.934;2023-07-29T06:44:06;2.70;;;1.37;;
22963;SDS011;11648;49.306;6.934;2023-07-29T06:46:33;1.90;;;1.20;;
22963;SDS011;11648;49.306;6.934;2023-07-29T06:49:00;1.93;;;1.10;;
22963;SDS011;11648;49.306;6.934;2023-07-29T06:51:26;2.80;;;1.10;;
22963;SDS011;11648;49.306;6.934;2023-07-29T06:53:55;3.03;;;1.13;;
22963;SDS011;11648;49.306;6.934;2023-07-29T06:56:22;3.00;;;1.33;;
22963;SDS011;11648;49.306;6.934;2023-07-29T06:58:49;2.30;;;1.40;;
22963;SDS011;11648;49.306;6.934;2023-07-29T07:01:15;3.70;;;2.23;;
22963;SDS011;11648;49.306;6.934;2023-07-29T07:03:42;2.67;;;1.60;;
22963;SDS011;11648;49.306;6.934;2023-07-29T07:06:09;3.20;;;1.60;;
22963;SDS011;11648;49.306;6.934;2023-07-29T07:08:36;2.27;;;1.50;;
22963;SDS011;11648;49.306;6.934;2023-07-29T07:11:03;4.90;;;1.87;;
22963;SDS011;11648;49.306;6.934;2023-07-29T07:13:29;3.70;;;1.40;;
22963;SDS011;11648;49.306;6.934;2023-07-29T07:15:56;3.77;;;1.10;;
22963;SDS011;11648;49.306;6.934;2023-07-29T07:18:23;3.30;;;1.20;;
22963;SDS011;11648;49.306;6.934;2023-07-29T07:20:50;2.90;;;1.30;;
22963;SDS011;11648;49.306;6.934;2023-07-29T07:23:18;2.27;;;1.00;;
22963;SDS011;11648;49.306;6.934;2023-07-29T07:25:45;2.00;;;1.00;;
22963;SDS011;11648;49.306;6.934;2023-07-29T07:28:12;2.97;;;0.90;;
22963;SDS011;11648;49.306;6.934;2023-07-29T07:30:39;1.93;;;1.00;;
22963;SDS011;11648;49.306;6.934;2023-07-29T07:33:07;2.97;;;1.10;;
22963;SDS011;11648;49.306;6.934;2023-07-29T07:35:34;3.10;;;1.00;;
22963;SDS011;11648;49.306;6.934;2023-07-29T07:38:01;1.77;;;1.00;;
22963;SDS011;11648;49.306;6.934;2023-07-29T07:40:30;2.33;;;1.10;;
22963;SDS011;11648;49.306;6.934;2023-07-29T07:42:57;4.22;;;0.93;;
22963;SDS011;11648;49.306;6.934;2023-07-29T07:45:24;1.77;;;1.00;;
22963;SDS011;11648;49.306;6.934;2023-07-29T07:47:51;3.67;;;0.85;;
22963;SDS011;11648;49.306;6.934;2023-07-29T07:50:22;2.35;;;0.90;;
22963;SDS011;11648;49.306;6.934;2023-07-29T07:52:50;3.50;;;0.85;;
22963;SDS011;11648;49.306;6.934;2023-07-29T07:55:17;1.93;;;0.90;;
22963;SDS011;11648;49.306;6.934;2023-07-29T07:57:44;3.03;;;1.00;;
22963;SDS011;11648;49.306;6.934;2023-07-29T08:00:10;1.90;;;0.98;;
22963;SDS011;11648;49.306;6.934;2023-07-29T08:02:41;1.60;;;0.90;;
22963;SDS011;11648;49.306;6.934;2023-07-29T08:05:09;2.15;;;0.90;;
22963;SDS011;11648;49.306;6.934;2023-07-29T08:07:36;3.55;;;1.00;;
22963;SDS011;11648;49.306;6.934;2023-07-29T08:10:03;2.30;;;1.00;;
22963;SDS011;11648;49.306;6.934;2023-07-29T08:12:30;2.10;;;1.00;;
22963;SDS011;11648;49.306;6.934;2023-07-29T08:14:57;1.98;;;1.10;;
22963;SDS011;11648;49.306;6.934;2023-07-29T08:17:24;1.80;;;0.90;;
22963;SDS011;11648;49.306;6.934;2023-07-29T08:19:50;3.17;;;1.08;;
22963;SDS011;11648;49.306;6.934;2023-07-29T08:22:17;1.70;;;0.85;;
22963;SDS011;11648;49.306;6.934;2023-07-29T08:24:44;1.77;;;1.17;;
22963;SDS011;11648;49.306;6.934;2023-07-29T08:27:11;1.67;;;1.05;;
22963;SDS011;11648;49.306;6.934;2023-07-29T08:29:38;2.92;;;1.08;;
22963;SDS011;11648;49.306;6.934;2023-07-29T08:32:05;1.40;;;0.90;;
22963;SDS011;11648;49.306;6.934;2023-07-29T08:34:32;1.77;;;0.90;;
22963;SDS011;11648;49.306;6.934;2023-07-29T08:36:59;2.83;;;1.20;;
22963;SDS011;11648;49.306;6.934;2023-07-29T08:39:26;2.20;;;1.08;;
22963;SDS011;11648;49.306;6.934;2023-07-29T08:42:00;2.17;;;0.98;;
22963;SDS011;11648;49.306;6.934;2023-07-29T08:44:41;1.98;;;0.90;;
22963;SDS011;11648;49.306;6.934;2023-07-29T08:47:09;2.63;;;1.30;;
22963;SDS011;11648;49.306;6.934;2023-07-29T08:49:36;1.70;;;0.90;;
22963;SDS011;11648;49.306;6.934;2023-07-29T08:52:04;1.63;;;0.80;;
22963;SDS011;11648;49.306;6.934;2023-07-29T08:54:33;1.75;;;1.00;;
22963;SDS011;11648;49.306;6.934;2023-07-29T08:57:00;3.05;;;0.90;;
22963;SDS011;11648;49.306;6.934;2023-07-29T08:59:28;2.05;;;0.90;;
22963;SDS011;11648;49.306;6.934;2023-07-29T09:01:55;4.47;;;1.10;;
22963;SDS011;11648;49.306;6.934;2023-07-29T09:04:23;1.85;;;0.93;;
22963;SDS011;11648;49.306;6.934;2023-07-29T09:06:51;2.08;;;1.00;;
22963;SDS011;11648;49.306;6.934;2023-07-29T09:09:20;2.10;;;1.15;;
22963;SDS011;11648;49.306;6.934;2023-07-29T09:11:48;1.58;;;1.00;;
22963;SDS011;11648;49.306;6.934;2023-07-29T09:14:15;1.88;;;0.85;;
22963;SDS011;11648;49.306;6.934;2023-07-29T09:16:41;2.15;;;1.00;;
22963;SDS011;11648;49.306;6.934;2023-07-29T09:19:09;2.50;;;1.00;;
22963;SDS011;11648;49.306;6.934;2023-07-29T09:21:38;1.65;;;0.90;;
22963;SDS011;11648;49.306;6.934;2023-07-29T09:24:06;2.40;;;1.02;;
22963;SDS011;11648;49.306;6.934;2023-07-29T09:26:34;1.90;;;1.02;;
22963;SDS011;11648;49.306;6.934;2023-07-29T09:29:02;1.65;;;0.80;;
22963;SDS011;11648;49.306;6.934;2023-07-29T09:31:29;2.15;;;0.88;;
22963;SDS011;11648;49.306;6.934;2023-07-29T09:33:57;3.92;;;0.98;;
22963;SDS011;11648;49.306;6.934;2023-07-29T09:36:30;6.85;;;0.90;;
22963;SDS011;11648;49.306;6.934;2023-07-29T09:38:58;1.48;;;0.80;;
22963;SDS011;11648;49.306;6.934;2023-07-29T09:41:25;1.77;;;0.98;;
22963;SDS011;11648;49.306;6.934;2023-07-29T09:43:57;2.53;;;0.80;;
22963;SDS011;11648;49.306;6.934;2023-07-29T09:46:26;3.88;;;1.17;;
22963;SDS011;11648;49.306;6.934;2023-07-29T09:48:59;2.63;;;1.10;;
22963;SDS011;11648;49.306;6.934;2023-07-29T09:51:26;4.68;;;0.80;;
22963;SDS011;11648;49.306;6.934;2023-07-29T09:53:52;1.60;;;0.80;;
22963;SDS011;11648;49.306;6.934;2023-07-29T09:56:26;3.25;;;0.90;;
22963;SDS011;11648;49.306;6.934;2023-07-29T09:58:55;1.65;;;0.70;;
22963;SDS011;11648;49.306;6.934;2023-07-29T10:01:23;2.45;;;0.80;;
22963;SDS011;11648;49.306;6.934;2023-07-29T10:03:50;2.15;;;0.70;;
22963;SDS011;11648;49.306;6.934;2023-07-29T10:06:18;3.20;;;0.95;;
22963;SDS011;11648;49.306;6.934;2023-07-29T10:08:46;4.65;;;0.90;;
22963;SDS011;11648;49.306;6.934;2023-07-29T10:11:14;2.78;;;0.70;;
22963;SDS011;11648;49.306;6.934;2023-07-29T10:13:41;1.52;;;0.80;;
22963;SDS011;11648;49.306;6.934;2023-07-29T10:16:22;2.05;;;0.60;;
22963;SDS011;11648;49.306;6.934;2023-07-29T10:18:50;1.77;;;0.80;;
22963;SDS011;11648;49.306;6.934;2023-07-29T10:21:19;3.35;;;0.80;;
22963;SDS011;11648;49.306;6.934;2023-07-29T10:23:49;1.13;;;0.70;;
22963;SDS011;11648;49.306;6.934;2023-07-29T10:26:19;1.85;;;0.77;;
22963;SDS011;11648;49.306;6.934;2023-07-29T10:28:47;1.50;;;0.75;;
22963;SDS011;11648;49.306;6.934;2023-07-29T10:31:18;1.20;;;0.80;;
22963;SDS011;11648;49.306;6.934;2023-07-29T10:33:47;1.63;;;0.80;;
22963;SDS011;11648;49.306;6.934;2023-07-29T10:36:14;2.03;;;0.90;;
22963;SDS011;11648;49.306;6.934;2023-07-29T10:38:41;1.38;;;0.80;;
22963;SDS011;11648;49.306;6.934;2023-07-29T10:41:08;3.33;;;0.73;;
22963;SDS011;11648;49.306;6.934;2023-07-29T10:43:38;1.33;;;0.90;;
22963;SDS011;11648;49.306;6.934;2023-07-29T10:46:18;1.67;;;0.80;;
22963;SDS011;11648;49.306;6.934;2023-07-29T10:53:57;1.25;;;0.73;;
22963;SDS011;11648;49.306;6.934;2023-07-29T10:56:32;2.63;;;0.95;;
22963;SDS011;11648;49.306;6.934;2023-07-29T11:01:38;1.42;;;0.80;;
22963;SDS011;11648;49.306;6.934;2023-07-29T11:04:28;2.20;;;0.90;;
22963;SDS011;11648;49.306;6.934;2023-07-29T11:15:11;1.80;;;0.90;;
22963;SDS011;11648;49.306;6.934;2023-07-29T11:20:18;3.38;;;0.85;;
22963;SDS011;11648;49.306;6.934;2023-07-29T11:22:46;1.40;;;1.00;;
22963;SDS011;11648;49.306;6.934;2023-07-29T11:25:14;1.27;;;0.82;;
22963;SDS011;11648;49.306;6.934;2023-07-29T11:27:42;2.15;;;1.10;;
22963;SDS011;11648;49.306;6.934;2023-07-29T11:30:10;3.05;;;1.10;;
22963;SDS011;11648;49.306;6.934;2023-07-29T11:32:39;2.00;;;1.17;;
22963;SDS011;11648;49.306;6.934;2023-07-29T11:35:08;2.08;;;1.02;;
22963;SDS011;11648;49.306;6.934;2023-07-29T11:37:37;2.33;;;1.05;;
22963;SDS011;11648;49.306;6.934;2023-07-29T11:40:05;1.73;;;0.90;;
22963;SDS011;11648;49.306;6.934;2023-07-29T11:42:33;3.67;;;1.40;;
22963;SDS011;11648;49.306;6.934;2023-07-29T11:45:01;2.80;;;1.00;;
22963;SDS011;11648;49.306;6.934;2023-07-29T11:47:30;1.80;;;1.10;;
22963;SDS011;11648;49.306;6.934;2023-07-29T11:50:00;1.75;;;0.90;;
22963;SDS011;11648;49.306;6.934;2023-07-29T11:52:27;2.08;;;1.00;;
22963;SDS011;11648;49.306;6.934;2023-07-29T11:54:55;3.20;;;0.90;;
22963;SDS011;11648;49.306;6.934;2023-07-29T11:57:22;3.08;;;1.15;;
22963;SDS011;11648;49.306;6.934;2023-07-29T11:59:49;2.50;;;1.08;;
22963;SDS011;11648;49.306;6.934;2023-07-29T12:02:17;3.13;;;1.00;;
22963;SDS011;11648;49.306;6.934;2023-07-29T12:04:46;1.40;;;0.90;;
22963;SDS011;11648;49.306;6.934;2023-07-29T12:07:14;1.67;;;0.90;;
22963;SDS011;11648;49.306;6.934;2023-07-29T12:09:43;1.67;;;0.80;;
22963;SDS011;11648;49.306;6.934;2023-07-29T12:12:11;1.75;;;0.88;;
22963;SDS011;11648;49.306;6.934;2023-07-29T12:14:38;3.38;;;1.35;;
22963;SDS011;11648;49.306;6.934;2023-07-29T12:17:06;2.60;;;1.20;;
22963;SDS011;11648;49.306;6.934;2023-07-29T12:19:34;1.85;;;0.73;;
22963;SDS011;11648;49.306;6.934;2023-07-29T12:22:03;2.05;;;0.95;;
22963;SDS011;11648;49.306;6.934;2023-07-29T12:24:31;1.77;;;0.98;;
22963;SDS011;11648;49.306;6.934;2023-07-29T12:26:59;2.63;;;1.25;;
22963;SDS011;11648;49.306;6.934;2023-07-29T12:29:26;1.75;;;1.00;;
22963;SDS011;11648;49.306;6.934;2023-07-29T12:31:57;1.80;;;0.90;;
22963;SDS011;11648;49.306;6.934;2023-07-29T12:34:26;2.10;;;1.23;;
22963;SDS011;11648;49.306;6.934;2023-07-29T12:36:55;2.92;;;1.20;;
22963;SDS011;11648;49.306;6.934;2023-07-29T12:41:51;2.35;;;1.20;;
22963;SDS011;11648;49.306;6.934;2023-07-29T12:44:20;1.73;;;1.10;;
22963;SDS011;11648;49.306;6.934;2023-07-29T12:46:47;2.17;;;1.15;;
22963;SDS011;11648;49.306;6.934;2023-07-29T12:49:13;3.83;;;1.00;;
22963;SDS011;11648;49.306;6.934;2023-07-29T12:51:40;1.85;;;1.10;;
22963;SDS011;11648;49.306;6.934;2023-07-29T12:54:07;2.63;;;1.00;;
22963;SDS011;11648;49.306;6.934;2023-07-29T12:56:34;3.45;;;0.95;;
22963;SDS011;11648;49.306;6.934;2023-07-29T12:59:02;2.28;;;1.20;;
22963;SDS011;11648;49.306;6.934;2023-07-29T13:01:29;2.80;;;1.40;;
22963;SDS011;11648;49.306;6.934;2023-07-29T13:03:56;1.90;;;1.30;;
22963;SDS011;11648;49.306;6.934;2023-07-29T13:06:23;1.85;;;1.20;;
22963;SDS011;11648;49.306;6.934;2023-07-29T13:08:50;2.63;;;1.40;;
22963;SDS011;11648;49.306;6.934;2023-07-29T13:11:17;1.80;;;1.17;;
22963;SDS011;11648;49.306;6.934;2023-07-29T13:13:44;1.77;;;1.20;;
22963;SDS011;11648;49.306;6.934;2023-07-29T13:16:12;1.50;;;1.10;;
22963;SDS011;11648;49.306;6.934;2023-07-29T13:18:39;2.20;;;1.20;;
22963;SDS011;11648;49.306;6.934;2023-07-29T13:21:07;2.25;;;1.10;;
22963;SDS011;11648;49.306;6.934;2023-07-29T13:23:34;2.85;;;1.20;;
22963;SDS011;11648;49.306;6.934;2023-07-29T13:26:01;1.65;;;1.23;;
22963;SDS011;11648;49.306;6.934;2023-07-29T13:28:28;2.78;;;1.30;;
22963;SDS011;11648;49.306;6.934;2023-07-29T13:30:55;2.03;;;1.00;;
22963;SDS011;11648;49.306;6.934;2023-07-29T13:33:21;1.80;;;1.30;;
22963;SDS011;11648;49.306;6.934;2023-07-29T13:35:48;2.97;;;1.30;;
22963;SDS011;11648;49.306;6.934;2023-07-29T13:38:15;2.42;;;1.20;;
22963;SDS011;11648;49.306;6.934;2023-07-29T13:40:42;2.35;;;1.25;;
22963;SDS011;11648;49.306;6.934;2023-07-29T13:43:09;4.28;;;1.48;;
22963;SDS011;11648;49.306;6.934;2023-07-29T13:45:36;3.33;;;1.20;;
22963;SDS011;11648;49.306;6.934;2023-07-29T13:48:03;2.22;;;1.40;;
22963;SDS011;11648;49.306;6.934;2023-07-29T13:50:30;1.75;;;1.30;;
22963;SDS011;11648;49.306;6.934;2023-07-29T13:52:57;3.95;;;1.20;;
22963;SDS011;11648;49.306;6.934;2023-07-29T13:55:24;2.75;;;1.20;;
22963;SDS011;11648;49.306;6.934;2023-07-29T13:57:51;2.60;;;1.60;;
22963;SDS011;11648;49.306;6.934;2023-07-29T14:00:19;1.98;;;1.40;;
22963;SDS011;11648;49.306;6.934;2023-07-29T14:02:45;3.58;;;1.20;;
22963;SDS011;11648;49.306;6.934;2023-07-29T14:05:12;3.05;;;1.30;;
22963;SDS011;11648;49.306;6.934;2023-07-29T14:07:40;1.85;;;1.27;;
22963;SDS011;11648;49.306;6.934;2023-07-29T14:10:07;2.08;;;1.20;;
22963;SDS011;11648;49.306;6.934;2023-07-29T14:12:34;2.45;;;1.20;;
22963;SDS011;11648;49.306;6.934;2023-07-29T14:15:01;2.35;;;1.35;;
22963;SDS011;11648;49.306;6.934;2023-07-29T14:17:28;3.17;;;1.20;;
22963;SDS011;11648;49.306;6.934;2023-07-29T14:19:55;1.88;;;1.25;;
22963;SDS011;11648;49.306;6.934;2023-07-29T14:22:21;2.38;;;1.40;;
22963;SDS011;11648;49.306;6.934;2023-07-29T14:24:48;1.98;;;1.50;;
22963;SDS011;11648;49.306;6.934;2023-07-29T14:27:15;3.35;;;1.63;;
22963;SDS011;11648;49.306;6.934;2023-07-29T14:29:43;2.67;;;1.25;;
22963;SDS011;11648;49.306;6.934;2023-07-29T14:32:10;4.05;;;1.50;;
22963;SDS011;11648;49.306;6.934;2023-07-29T14:34:36;2.72;;;1.60;;
22963;SDS011;11648;49.306;6.934;2023-07-29T14:37:03;2.55;;;1.40;;
22963;SDS011;11648;49.306;6.934;2023-07-29T14:39:30;3.50;;;1.40;;
22963;SDS011;11648;49.306;6.934;2023-07-29T14:41:57;2.40;;;1.40;;
22963;SDS011;11648;49.306;6.934;2023-07-29T14:44:24;2.55;;;1.23;;
22963;SDS011;11648;49.306;6.934;2023-07-29T14:46:50;2.20;;;1.58;;
22963;SDS011;11648;49.306;6.934;2023-07-29T14:49:17;4.10;;;1.33;;
22963;SDS011;11648;49.306;6.934;2023-07-29T14:51:44;2.28;;;1.30;;
22963;SDS011;11648;49.306;6.934;2023-07-29T14:54:10;1.95;;;1.35;;
22963;SDS011;11648;49.306;6.934;2023-07-29T14:56:37;2.53;;;1.40;;
22963;SDS011;11648;49.306;6.934;2023-07-29T14:59:04;2.20;;;1.30;;
22963;SDS011;11648;49.306;6.934;2023-07-29T15:01:31;3.08;;;1.15;;
22963;SDS011;11648;49.306;6.934;2023-07-29T15:03:58;3.78;;;1.50;;
22963;SDS011;11648;49.306;6.934;2023-07-29T15:06:25;3.58;;;1.42;;
22963;SDS011;11648;49.306;6.934;2023-07-29T15:08:51;2.10;;;1.30;;
22963;SDS011;11648;49.306;6.934;2023-07-29T15:11:18;2.35;;;1.33;;
22963;SDS011;11648;49.306;6.934;2023-07-29T15:13:45;2.47;;;1.30;;
22963;SDS011;11648;49.306;6.934;2023-07-29T15:16:12;3.63;;;1.30;;